Time;durP1;ratioP1;P1;durP2;ratioP2;P2;SDS_P1;SDS_P2;PMS_P1;PMS_P2;Temp;Humidity;BMP_temperature;BMP_pressure;BME280_temperature;BME280_humidity;BME280_pressure;Samples;Min_cycle;Max_cycle;Signal;HPM_P1;HPM_P2
2022/12/12 00:00:48;;;;;;;42.92;20.45;;;;;;;;;;5098142;28;20444;-85
2022/12/12 00:03:14;;;;;;;42.13;19.92;;;;;;;;;;5116260;28;20061;-84
2022/12/12 00:05:40;;;;;;;42.28;19.73;;;;;;;;;;5116356;28;20026;-84
2022/12/12 00:08:06;;;;;;;39.10;19.65;;;;;;;;;;5116386;28;20031;-85
2022/12/12 00:10:32;;;;;;;42.78;19.50;;;;;;;;;;5114965;28;20019;-84
2022/12/12 00:12:58;;;;;;;41.13;20.00;;;;;;;;;;5116375;28;20032;-85
2022/12/12 00:15:26;;;;;;;40.70;19.95;;;;;;;;;;5110355;28;20112;-85
2022/12/12 00:17:52;;;;;;;41.22;20.15;;;;;;;;;;5094394;28;20031;-84
2022/12/12 00:20:18;;;;;;;39.65;20.15;;;;;;;;;;5098523;28;20019;-85
2022/12/12 00:22:44;;;;;;;39.35;19.70;;;;;;;;;;5115786;28;20120;-84
2022/12/12 00:25:10;;;;;;;43.72;20.60;;;;;;;;;;5114801;28;20039;-84
2022/12/12 00:27:36;;;;;;;42.60;20.30;;;;;;;;;;5114607;28;20031;-85
2022/12/12 00:30:03;;;;;;;41.20;19.90;;;;;;;;;;5114804;28;20043;-85
2022/12/12 00:32:29;;;;;;;42.03;20.60;;;;;;;;;;5116060;28;20031;-85
2022/12/12 00:34:55;;;;;;;42.53;20.40;;;;;;;;;;5114555;28;20020;-84
2022/12/12 00:37:21;;;;;;;42.30;20.33;;;;;;;;;;5115842;28;20032;-85
2022/12/12 00:39:47;;;;;;;41.78;19.90;;;;;;;;;;5114412;28;20036;-85
2022/12/12 00:42:14;;;;;;;42.08;21.48;;;;;;;;;;5097505;28;20032;-84
2022/12/12 00:44:40;;;;;;;43.35;22.30;;;;;;;;;;5113957;28;20483;-85
2022/12/12 00:47:06;;;;;;;39.97;20.60;;;;;;;;;;5115655;28;20080;-85
2022/12/12 00:49:32;;;;;;;43.17;20.63;;;;;;;;;;5114374;28;20107;-85
2022/12/12 00:51:58;;;;;;;46.40;20.90;;;;;;;;;;5115770;28;20469;-85
2022/12/12 00:54:24;;;;;;;42.53;20.33;;;;;;;;;;5115674;28;20172;-84
2022/12/12 00:56:50;;;;;;;44.72;20.70;;;;;;;;;;5114425;28;20405;-84
2022/12/12 00:59:18;;;;;;;43.28;20.17;;;;;;;;;;5114321;28;20035;-84
2022/12/12 01:01:44;;;;;;;40.20;20.90;;;;;;;;;;5115343;27;20027;-84
2022/12/12 01:04:10;;;;;;;42.92;22.15;;;;;;;;;;5114343;28;20358;-84
2022/12/12 01:06:37;;;;;;;43.90;20.13;;;;;;;;;;5115349;28;20020;-85
2022/12/12 01:09:03;;;;;;;40.60;19.23;;;;;;;;;;5115420;28;20098;-84
2022/12/12 01:11:29;;;;;;;48.50;20.63;;;;;;;;;;5114086;28;20434;-85
2022/12/12 01:13:55;;;;;;;43.03;21.02;;;;;;;;;;5115420;28;20055;-85
2022/12/12 01:16:21;;;;;;;42.10;20.95;;;;;;;;;;5114990;28;20031;-85
2022/12/12 01:18:48;;;;;;;43.70;21.38;;;;;;;;;;5113969;28;20023;-84
2022/12/12 01:21:15;;;;;;;46.63;21.40;;;;;;;;;;5114556;28;20015;-84
2022/12/12 01:23:41;;;;;;;43.58;20.83;;;;;;;;;;5120934;27;20096;-85
2022/12/12 01:26:09;;;;;;;43.08;20.08;;;;;;;;;;5135586;27;20046;-85
2022/12/12 01:28:36;;;;;;;44.28;20.00;;;;;;;;;;5135503;27;20023;-84
2022/12/12 01:31:02;;;;;;;44.50;21.17;;;;;;;;;;5116879;27;20067;-84
2022/12/12 01:33:28;;;;;;;46.60;21.55;;;;;;;;;;5135327;27;20038;-85
2022/12/12 01:35:55;;;;;;;42.75;21.13;;;;;;;;;;5135298;27;20075;-84
2022/12/12 01:38:23;;;;;;;36.85;18.63;;;;;;;;;;5116560;27;20179;-84
2022/12/12 01:40:49;;;;;;;42.90;19.92;;;;;;;;;;5116639;27;20103;-85
2022/12/12 01:43:16;;;;;;;41.97;19.75;;;;;;;;;;5116739;27;20027;-84
2022/12/12 01:45:54;;;;;;;35.28;18.30;;;;;;;;;;5135229;27;20019;-84
2022/12/12 01:48:22;;;;;;;40.67;18.73;;;;;;;;;;5135092;27;20026;-85
2022/12/12 01:50:48;;;;;;;41.72;19.30;;;;;;;;;;5116563;27;20031;-85
2022/12/12 01:53:15;;;;;;;41.65;19.90;;;;;;;;;;5135346;27;20114;-84
2022/12/12 01:55:41;;;;;;;41.03;18.23;;;;;;;;;;5134393;27;20039;-84
2022/12/12 01:58:08;;;;;;;40.53;18.70;;;;;;;;;;5116238;27;20019;-84
2022/12/12 02:00:34;;;;;;;40.80;18.60;;;;;;;;;;5116214;27;20030;-85
2022/12/12 02:03:00;;;;;;;43.47;19.65;;;;;;;;;;5134563;27;20027;-85
2022/12/12 02:05:29;;;;;;;35.47;17.77;;;;;;;;;;5116439;27;20020;-84
2022/12/12 02:07:58;;;;;;;42.90;19.52;;;;;;;;;;5116090;27;20400;-84
2022/12/12 02:10:24;;;;;;;36.72;17.95;;;;;;;;;;5134521;27;20022;-84
2022/12/12 02:12:50;;;;;;;45.63;18.98;;;;;;;;;;5116410;27;20023;-85
2022/12/12 02:15:16;;;;;;;37.65;17.60;;;;;;;;;;5116063;27;20033;-84
2022/12/12 02:18:01;;;;;;;42.33;19.35;;;;;;;;;;5134470;27;20027;-84
2022/12/12 02:20:32;;;;;;;42.20;18.40;;;;;;;;;;5133855;27;20031;-85
2022/12/12 02:23:01;;;;;;;39.50;17.80;;;;;;;;;;5134065;27;20197;-85
2022/12/12 02:26:03;;;;;;;34.60;17.42;;;;;;;;;;5134228;27;20058;-84
2022/12/12 02:28:43;;;;;;;36.85;17.90;;;;;;;;;;5070833;28;20024;-84
2022/12/12 02:31:18;;;;;;;39.17;17.33;;;;;;;;;;5109370;27;20027;-85
2022/12/12 02:34:06;;;;;;;38.38;16.75;;;;;;;;;;5134197;27;20054;-85
2022/12/12 02:36:51;;;;;;;36.22;17.25;;;;;;;;;;5134020;27;20027;-85
2022/12/12 02:39:26;;;;;;;36.38;17.23;;;;;;;;;;5122891;27;20016;-84
2022/12/12 02:41:55;;;;;;;35.92;17.27;;;;;;;;;;5113475;28;20084;-85
2022/12/12 02:44:27;;;;;;;34.78;16.67;;;;;;;;;;5095312;28;20172;-85
2022/12/12 02:47:08;;;;;;;34.30;16.90;;;;;;;;;;5095151;28;20115;-84
2022/12/12 02:50:01;;;;;;;39.67;16.83;;;;;;;;;;5113501;28;20012;-84
2022/12/12 02:52:27;;;;;;;;;;;;;;;;;;5089850;28;20371;-84
2022/12/12 02:54:53;;;;;;;40.17;17.58;;;;;;;;;;5113164;28;19915;-84
2022/12/12 02:57:20;;;;;;;32.58;16.45;;;;;;;;;;5112661;28;20031;-85
2022/12/12 02:59:52;;;;;;;36.63;18.10;;;;;;;;;;5112635;28;20106;-85
2022/12/12 03:02:18;;;;;;;;;;;;;;;;;;5112809;28;20031;-85
2022/12/12 03:08:07;;;;;;;37.00;16.73;;;;;;;;;;5086666;28;20085;-85
2022/12/12 03:10:45;;;;;;;34.47;16.40;;;;;;;;;;5113274;28;20423;-85
2022/12/12 03:13:15;;;;;;;37.78;17.08;;;;;;;;;;5113087;28;20034;-84
2022/12/12 03:15:56;;;;;;;36.50;17.30;;;;;;;;;;5094521;28;20034;-84
2022/12/12 03:18:22;;;;;;;33.93;17.23;;;;;;;;;;5113232;28;20016;-85
2022/12/12 03:20:54;;;;;;;35.85;17.48;;;;;;;;;;5121092;28;20023;-84
2022/12/12 03:23:28;;;;;;;37.33;17.85;;;;;;;;;;5133369;28;20050;-83
2022/12/12 03:25:59;;;;;;;36.47;17.67;;;;;;;;;;5132390;28;20023;-84
2022/12/12 03:28:34;;;;;;;35.50;16.95;;;;;;;;;;5133425;28;20414;-84
2022/12/12 03:31:03;;;;;;;38.65;16.83;;;;;;;;;;5133379;28;20031;-84
2022/12/12 03:33:33;;;;;;;39.25;16.77;;;;;;;;;;5133445;28;20030;-84
2022/12/12 03:36:06;;;;;;;41.00;17.83;;;;;;;;;;5132076;28;20477;-84
2022/12/12 03:38:34;;;;;;;39.47;17.95;;;;;;;;;;5133431;28;20464;-85
2022/12/12 03:41:02;;;;;;;39.67;17.00;;;;;;;;;;5133439;28;20084;-85
2022/12/12 03:43:51;;;;;;;40.45;18.23;;;;;;;;;;5133126;28;20228;-84
2022/12/12 03:46:18;;;;;;;36.97;17.83;;;;;;;;;;5133109;28;20035;-85
2022/12/12 03:48:46;;;;;;;36.88;17.85;;;;;;;;;;5133277;28;20046;-85
2022/12/12 03:51:18;;;;;;;35.55;17.40;;;;;;;;;;5131602;28;20046;-84
2022/12/12 03:53:44;;;;;;;36.92;17.77;;;;;;;;;;5133326;28;20098;-84
2022/12/12 03:56:30;;;;;;;38.42;17.95;;;;;;;;;;5131810;28;20034;-84
2022/12/12 03:58:59;;;;;;;35.90;16.63;;;;;;;;;;5132615;28;20445;-84
2022/12/12 04:01:28;;;;;;;36.67;16.75;;;;;;;;;;5132890;28;20027;-85
2022/12/12 04:04:13;;;;;;;35.28;16.25;;;;;;;;;;5133100;28;20027;-85
2022/12/12 04:06:45;;;;;;;37.30;16.88;;;;;;;;;;5133235;28;20023;-85
2022/12/12 04:14:52;;;;;;;35.15;16.73;;;;;;;;;;5133204;28;20062;-84
2022/12/12 04:17:21;;;;;;;37.85;17.90;;;;;;;;;;5114282;28;20488;-85
2022/12/12 04:26:37;;;;;;;41.67;18.15;;;;;;;;;;5136138;27;20058;-85
2022/12/12 04:28:27;;;;;;;37.67;16.77;;;;;;;;;;5115762;28;20032;-85
2022/12/12 04:30:54;;;;;;;45.08;18.90;;;;;;;;;;5115873;28;20019;-84
2022/12/12 04:33:21;;;;;;;41.58;18.63;;;;;;;;;;5115851;28;20028;-84
2022/12/12 04:35:49;;;;;;;39.47;17.30;;;;;;;;;;5115612;28;20095;-84
2022/12/12 04:38:17;;;;;;;39.67;17.60;;;;;;;;;;5133556;27;20027;-84
2022/12/12 04:40:44;;;;;;;41.00;18.40;;;;;;;;;;5136084;27;20019;-84
2022/12/12 04:43:13;;;;;;;42.35;18.00;;;;;;;;;;5135979;27;20381;-84
2022/12/12 04:45:41;;;;;;;39.20;17.92;;;;;;;;;;5117560;27;20042;-84
2022/12/12 04:48:09;;;;;;;40.47;18.10;;;;;;;;;;5136054;27;20054;-84
2022/12/12 04:50:37;;;;;;;41.92;17.00;;;;;;;;;;5135945;27;20121;-83
2022/12/12 04:53:07;;;;;;;44.42;19.25;;;;;;;;;;5135800;27;20023;-84
2022/12/12 04:55:35;;;;;;;43.25;18.23;;;;;;;;;;5136070;27;20023;-84
2022/12/12 04:58:02;;;;;;;45.97;18.00;;;;;;;;;;5135837;27;20023;-83
2022/12/12 05:00:31;;;;;;;41.97;18.52;;;;;;;;;;5117538;27;20072;-84
2022/12/12 05:02:57;;;;;;;40.40;18.27;;;;;;;;;;5117388;27;20331;-84
2022/12/12 05:05:23;;;;;;;49.90;19.02;;;;;;;;;;5135869;27;20023;-83
2022/12/12 05:07:52;;;;;;;47.03;19.00;;;;;;;;;;5117278;27;20016;-83
2022/12/12 05:10:19;;;;;;;46.63;18.42;;;;;;;;;;5135664;27;20020;-83
2022/12/12 05:12:47;;;;;;;43.42;19.40;;;;;;;;;;5117225;27;20023;-83
2022/12/12 05:15:14;;;;;;;49.20;18.42;;;;;;;;;;5135487;27;20465;-83
2022/12/12 05:17:47;;;;;;;45.05;17.48;;;;;;;;;;5135839;27;20023;-83
2022/12/12 05:20:15;;;;;;;44.15;18.83;;;;;;;;;;5135045;27;20075;-83
2022/12/12 05:22:41;;;;;;;47.63;18.45;;;;;;;;;;5134003;27;20060;-82
2022/12/12 05:25:08;;;;;;;47.15;19.92;;;;;;;;;;5116962;27;20132;-83
2022/12/12 05:27:34;;;;;;;78.22;23.35;;;;;;;;;;5117190;27;20023;-83
2022/12/12 05:30:00;;;;;;;43.50;18.48;;;;;;;;;;5135400;27;20468;-83
2022/12/12 05:32:26;;;;;;;45.97;18.48;;;;;;;;;;5133855;27;20414;-82
2022/12/12 05:34:52;;;;;;;43.92;18.08;;;;;;;;;;5117151;27;20050;-83
2022/12/12 05:37:18;;;;;;;42.65;18.65;;;;;;;;;;5105012;28;20289;-82
2022/12/12 05:39:44;;;;;;;47.72;19.13;;;;;;;;;;5114536;28;20094;-82
2022/12/12 05:42:10;;;;;;;44.03;19.08;;;;;;;;;;5114438;28;20118;-82
2022/12/12 05:44:36;;;;;;;44.13;17.70;;;;;;;;;;5114574;28;20043;-82
2022/12/12 05:47:02;;;;;;;50.90;20.15;;;;;;;;;;5112905;28;20505;-82
2022/12/12 05:49:28;;;;;;;40.22;17.48;;;;;;;;;;5114523;28;20023;-82
2022/12/12 05:51:54;;;;;;;50.53;19.17;;;;;;;;;;5113106;28;20024;-82
2022/12/12 05:54:20;;;;;;;48.45;19.92;;;;;;;;;;5114148;28;20039;-82
2022/12/12 05:56:46;;;;;;;45.75;19.77;;;;;;;;;;5114345;28;20020;-82
2022/12/12 05:59:12;;;;;;;50.17;20.17;;;;;;;;;;5112868;28;20428;-82
2022/12/12 06:01:38;;;;;;;48.15;19.10;;;;;;;;;;5096035;28;20834;-82
2022/12/12 06:04:04;;;;;;;47.47;18.88;;;;;;;;;;5113366;28;20462;-82
2022/12/12 06:06:30;;;;;;;47.30;19.13;;;;;;;;;;5114007;28;20481;-81
2022/12/12 06:08:57;;;;;;;53.20;20.75;;;;;;;;;;5095737;28;20054;-82
2022/12/12 06:11:23;;;;;;;47.92;19.95;;;;;;;;;;5112671;28;20019;-81
2022/12/12 06:13:49;;;;;;;54.85;21.17;;;;;;;;;;5114065;28;20448;-81
2022/12/12 06:16:16;;;;;;;47.78;19.52;;;;;;;;;;5113675;28;20036;-81
2022/12/12 06:18:42;;;;;;;54.08;20.38;;;;;;;;;;5113943;28;20059;-81
2022/12/12 06:21:09;;;;;;;49.03;19.63;;;;;;;;;;5125433;27;20031;-81
2022/12/12 06:23:36;;;;;;;48.03;19.95;;;;;;;;;;5115682;27;20066;-81
2022/12/12 06:26:03;;;;;;;49.72;19.58;;;;;;;;;;5134069;27;20027;-81
2022/12/12 06:28:29;;;;;;;50.20;19.25;;;;;;;;;;5134260;27;20034;-81
2022/12/12 06:30:55;;;;;;;48.63;19.33;;;;;;;;;;5134327;27;20028;-81
2022/12/12 06:33:21;;;;;;;50.53;20.63;;;;;;;;;;5134153;27;20023;-81
2022/12/12 06:35:56;;;;;;;49.20;20.35;;;;;;;;;;5134043;27;20390;-81
2022/12/12 06:38:22;;;;;;;50.15;20.95;;;;;;;;;;5132455;27;20134;-81
2022/12/12 06:40:48;;;;;;;48.35;19.20;;;;;;;;;;5134146;27;20031;-81
2022/12/12 06:43:14;;;;;;;50.42;18.98;;;;;;;;;;5133149;27;20050;-80
2022/12/12 06:45:40;;;;;;;56.38;19.73;;;;;;;;;;5127156;27;20797;-81
2022/12/12 06:48:06;;;;;;;49.92;20.17;;;;;;;;;;5133883;27;20752;-81
2022/12/12 06:50:32;;;;;;;58.15;21.58;;;;;;;;;;5109542;28;20470;-83
2022/12/12 06:52:59;;;;;;;50.30;19.90;;;;;;;;;;5119834;27;20473;-82
2022/12/12 06:55:25;;;;;;;49.70;20.63;;;;;;;;;;5137943;27;20039;-82
2022/12/12 06:57:51;;;;;;;54.85;21.50;;;;;;;;;;5117848;27;20073;-82
2022/12/12 07:00:17;;;;;;;49.50;19.48;;;;;;;;;;5083875;28;20363;-82
2022/12/12 07:02:43;;;;;;;51.13;20.60;;;;;;;;;;5124564;27;20511;-82
2022/12/12 07:05:09;;;;;;;112.82;33.25;;;;;;;;;;5078490;28;20101;-82
2022/12/12 07:07:35;;;;;;;143.60;40.45;;;;;;;;;;5095335;28;20024;-82
2022/12/12 07:10:01;;;;;;;133.77;37.80;;;;;;;;;;5095224;28;20015;-82
2022/12/12 07:12:27;;;;;;;110.18;33.67;;;;;;;;;;5095191;28;20027;-85
2022/12/12 07:14:53;;;;;;;110.07;34.17;;;;;;;;;;5113165;28;20019;-82
2022/12/12 07:17:19;;;;;;;86.25;31.10;;;;;;;;;;5112593;28;20032;-82
2022/12/12 07:19:45;;;;;;;90.65;29.55;;;;;;;;;;5112984;28;20069;-82
2022/12/12 07:22:11;;;;;;;72.10;25.80;;;;;;;;;;5095077;28;20032;-82
2022/12/12 07:24:37;;;;;;;62.58;22.67;;;;;;;;;;5094936;28;20050;-82
2022/12/12 07:27:03;;;;;;;58.08;23.02;;;;;;;;;;5113896;28;20023;-83
2022/12/12 07:29:30;;;;;;;57.00;21.58;;;;;;;;;;5133341;28;20019;-83
2022/12/12 07:31:56;;;;;;;56.85;22.08;;;;;;;;;;5110988;28;20047;-80
2022/12/12 07:34:22;;;;;;;55.67;20.90;;;;;;;;;;5113650;28;20027;-82
2022/12/12 07:36:48;;;;;;;54.88;21.65;;;;;;;;;;5121656;27;20020;-82
2022/12/12 07:39:15;;;;;;;57.95;21.33;;;;;;;;;;5132702;28;20076;-82
2022/12/12 07:41:41;;;;;;;54.58;22.70;;;;;;;;;;5131404;28;20019;-82
2022/12/12 07:44:08;;;;;;;52.20;20.85;;;;;;;;;;5124136;28;20024;-82
2022/12/12 07:46:34;;;;;;;52.53;20.50;;;;;;;;;;5094054;28;20125;-82
2022/12/12 07:49:00;;;;;;;55.90;21.90;;;;;;;;;;5094045;28;20030;-82
2022/12/12 07:51:26;;;;;;;60.83;21.40;;;;;;;;;;5112488;28;20032;-82
2022/12/12 07:53:52;;;;;;;50.45;21.35;;;;;;;;;;5112132;28;20420;-83
2022/12/12 07:56:19;;;;;;;54.33;20.85;;;;;;;;;;5115773;28;20031;-83
2022/12/12 07:58:45;;;;;;;51.53;20.27;;;;;;;;;;5116188;28;20024;-83
2022/12/12 08:01:17;;;;;;;52.28;20.52;;;;;;;;;;5116047;28;20030;-82
2022/12/12 08:03:43;;;;;;;53.55;20.73;;;;;;;;;;5115098;28;20019;-82
2022/12/12 08:06:10;;;;;;;63.63;24.88;;;;;;;;;;5116021;28;20035;-82
2022/12/12 08:08:36;;;;;;;63.60;24.38;;;;;;;;;;5097721;28;20096;-82
2022/12/12 08:11:07;;;;;;;70.25;25.75;;;;;;;;;;5097506;28;20563;-81
2022/12/12 08:13:34;;;;;;;62.88;23.13;;;;;;;;;;5098107;27;20477;-81
2022/12/12 08:16:00;;;;;;;75.10;24.05;;;;;;;;;;5123545;27;20103;-82
2022/12/12 08:18:26;;;;;;;61.90;22.63;;;;;;;;;;5115711;28;20038;-82
2022/12/12 08:20:52;;;;;;;72.78;24.83;;;;;;;;;;5104647;28;20035;-81
2022/12/12 08:23:18;;;;;;;96.93;31.23;;;;;;;;;;5115581;28;20035;-82
2022/12/12 08:25:44;;;;;;;96.32;29.85;;;;;;;;;;5097401;28;20051;-80
2022/12/12 08:28:10;;;;;;;112.18;30.10;;;;;;;;;;5127092;27;20030;-81
2022/12/12 08:30:37;;;;;;;77.75;26.95;;;;;;;;;;5136122;27;20023;-81
2022/12/12 08:33:03;;;;;;;68.82;25.40;;;;;;;;;;5117003;27;20122;-81
2022/12/12 08:35:29;;;;;;;71.72;25.88;;;;;;;;;;5117396;27;20066;-81
2022/12/12 08:37:55;;;;;;;69.28;25.13;;;;;;;;;;5100513;28;20081;-81
2022/12/12 08:40:21;;;;;;;78.90;26.38;;;;;;;;;;5097339;28;20038;-81
2022/12/12 08:42:47;;;;;;;81.28;26.85;;;;;;;;;;5115451;28;20035;-81
2022/12/12 08:45:13;;;;;;;70.05;27.10;;;;;;;;;;5115526;28;20028;-81
2022/12/12 08:47:39;;;;;;;75.57;26.10;;;;;;;;;;5114763;28;20020;-81
2022/12/12 08:50:06;;;;;;;88.65;27.35;;;;;;;;;;5124636;27;20007;-81
2022/12/12 08:52:32;;;;;;;81.47;27.08;;;;;;;;;;5135590;27;20031;-80
2022/12/12 08:54:58;;;;;;;69.22;25.98;;;;;;;;;;5124229;27;20028;-81
2022/12/12 08:57:24;;;;;;;72.55;24.73;;;;;;;;;;5115282;28;20100;-81
2022/12/12 08:59:50;;;;;;;79.53;26.77;;;;;;;;;;5115083;28;20059;-82
2022/12/12 09:02:16;;;;;;;75.35;25.10;;;;;;;;;;5115017;28;20031;-81
2022/12/12 09:04:42;;;;;;;88.60;27.25;;;;;;;;;;5115113;28;20027;-81
2022/12/12 09:07:08;;;;;;;66.10;25.33;;;;;;;;;;5114675;28;20046;-81
2022/12/12 09:09:34;;;;;;;75.22;25.67;;;;;;;;;;5119339;27;20023;-81
2022/12/12 09:12:00;;;;;;;72.30;27.17;;;;;;;;;;5130646;27;20209;-81
2022/12/12 09:14:27;;;;;;;68.72;24.63;;;;;;;;;;5114543;28;20098;-81
2022/12/12 09:16:53;;;;;;;72.13;25.23;;;;;;;;;;5123796;27;20029;-81
2022/12/12 09:19:19;;;;;;;71.45;25.98;;;;;;;;;;5118853;27;20129;-81
2022/12/12 09:21:45;;;;;;;67.25;25.02;;;;;;;;;;5114666;28;20027;-81
2022/12/12 09:24:11;;;;;;;66.45;25.10;;;;;;;;;;5114267;28;20052;-81
2022/12/12 09:26:37;;;;;;;68.50;25.17;;;;;;;;;;5114335;28;20078;-82
2022/12/12 09:29:04;;;;;;;69.28;23.67;;;;;;;;;;5114289;28;20055;-82
2022/12/12 09:31:30;;;;;;;71.70;26.08;;;;;;;;;;5113952;28;20019;-87
2022/12/12 09:33:56;;;;;;;69.65;26.48;;;;;;;;;;5096017;28;20036;-84
2022/12/12 09:36:22;;;;;;;67.53;25.52;;;;;;;;;;5114344;27;20024;-82
2022/12/12 09:38:49;;;;;;;67.43;26.10;;;;;;;;;;5095671;28;20038;-84
2022/12/12 09:41:17;;;;;;;77.00;27.00;;;;;;;;;;5114127;28;20024;-84
2022/12/12 09:43:46;;;;;;;69.22;25.42;;;;;;;;;;5114120;28;20046;-84
2022/12/12 09:46:20;;;;;;;72.00;25.80;;;;;;;;;;5114101;28;20034;-84
2022/12/12 09:48:46;;;;;;;62.92;25.02;;;;;;;;;;5095737;28;20523;-84
2022/12/12 09:51:13;;;;;;;72.63;27.00;;;;;;;;;;5113869;28;20024;-84
2022/12/12 09:53:40;;;;;;;69.60;26.00;;;;;;;;;;5095894;28;20033;-84
2022/12/12 09:56:10;;;;;;;63.83;24.50;;;;;;;;;;5095667;28;20068;-84
2022/12/12 09:58:46;;;;;;;67.35;26.60;;;;;;;;;;5113883;28;20381;-84
2022/12/12 10:01:31;;;;;;;70.45;25.58;;;;;;;;;;5095665;28;20114;-84
2022/12/12 10:04:00;;;;;;;66.85;24.40;;;;;;;;;;5113876;28;20107;-84
2022/12/12 10:06:28;;;;;;;57.30;23.23;;;;;;;;;;5113752;28;20023;-83
2022/12/12 10:09:13;;;;;;;65.20;24.02;;;;;;;;;;5113833;28;20142;-84
2022/12/12 10:11:49;;;;;;;59.40;23.45;;;;;;;;;;5113782;28;20024;-84
2022/12/12 10:14:18;;;;;;;62.58;24.00;;;;;;;;;;5113249;28;20381;-84
2022/12/12 10:16:45;;;;;;;53.78;23.63;;;;;;;;;;5113091;28;20024;-85
2022/12/12 10:19:19;;;;;;;62.10;23.95;;;;;;;;;;5111825;28;20039;-82
2022/12/12 10:21:46;;;;;;;64.40;23.35;;;;;;;;;;5097871;28;20481;-82
2022/12/12 10:24:24;;;;;;;58.03;23.15;;;;;;;;;;5115403;27;20108;-81
2022/12/12 10:26:50;;;;;;;60.80;23.83;;;;;;;;;;5132453;27;20504;-81
2022/12/12 10:29:18;;;;;;;57.42;23.20;;;;;;;;;;5133781;27;20486;-82
2022/12/12 10:31:59;;;;;;;71.93;24.20;;;;;;;;;;5133650;27;20124;-81
2022/12/12 10:34:43;;;;;;;61.83;23.60;;;;;;;;;;5133737;27;20023;-81
2022/12/12 10:37:15;;;;;;;63.00;23.33;;;;;;;;;;5133313;27;20023;-81
2022/12/12 10:39:41;;;;;;;;;;;;;;;;;;5133621;27;20019;-81
2022/12/12 10:42:22;;;;;;;60.53;22.25;;;;;;;;;;5133510;27;19903;-83
2022/12/12 10:44:51;;;;;;;57.10;22.75;;;;;;;;;;5114997;27;20030;-82
2022/12/12 10:47:17;;;;;;;52.90;20.70;;;;;;;;;;5133579;27;20043;-83
2022/12/12 10:49:43;;;;;;;55.60;22.23;;;;;;;;;;5133529;27;20023;-83
2022/12/12 10:52:17;;;;;;;54.15;22.20;;;;;;;;;;5133742;27;20019;-83
2022/12/12 10:55:04;;;;;;;54.38;21.67;;;;;;;;;;5114904;27;20019;-83
2022/12/12 10:57:35;;;;;;;57.63;22.63;;;;;;;;;;5133218;27;20079;-83
2022/12/12 11:00:14;;;;;;;59.17;22.75;;;;;;;;;;5133237;27;20079;-83
2022/12/12 11:02:41;;;;;;;49.00;22.38;;;;;;;;;;5135247;27;20376;-83
2022/12/12 11:05:09;;;;;;;50.90;21.98;;;;;;;;;;5133491;27;20370;-83
2022/12/12 11:07:37;;;;;;;53.60;20.90;;;;;;;;;;5133311;27;20022;-83
2022/12/12 11:10:13;;;;;;;52.97;20.77;;;;;;;;;;5133137;27;20018;-82
2022/12/12 11:12:39;;;;;;;46.90;20.25;;;;;;;;;;5114590;27;20064;-81
2022/12/12 11:15:12;;;;;;;48.35;20.05;;;;;;;;;;5133129;27;20084;-82
2022/12/12 11:17:38;;;;;;;50.88;19.58;;;;;;;;;;5132917;28;20088;-81
2022/12/12 11:20:06;;;;;;;46.38;19.58;;;;;;;;;;5132467;28;20027;-81
2022/12/12 11:22:32;;;;;;;47.42;19.48;;;;;;;;;;5131605;28;20031;-81
2022/12/12 11:24:59;;;;;;;43.35;18.98;;;;;;;;;;5132818;28;20047;-81
2022/12/12 11:27:28;;;;;;;52.05;19.52;;;;;;;;;;5133114;28;20130;-82
2022/12/12 11:30:01;;;;;;;50.15;19.90;;;;;;;;;;5135988;27;20034;-81
2022/12/12 11:32:32;;;;;;;46.20;19.90;;;;;;;;;;5136931;27;20047;-81
2022/12/12 11:35:00;;;;;;;45.25;19.10;;;;;;;;;;5136659;27;20034;-81
2022/12/12 11:37:27;;;;;;;41.92;19.33;;;;;;;;;;5130838;27;20023;-81
2022/12/12 11:39:56;;;;;;;43.53;19.00;;;;;;;;;;5136904;27;20051;-81
2022/12/12 11:42:29;;;;;;;46.13;20.05;;;;;;;;;;5118313;27;20023;-81
2022/12/12 11:45:00;;;;;;;41.95;18.35;;;;;;;;;;5136817;27;20786;-81
2022/12/12 11:47:28;;;;;;;41.50;18.58;;;;;;;;;;5135410;27;20426;-81
2022/12/12 11:49:56;;;;;;;41.47;17.20;;;;;;;;;;5136801;27;20052;-81
2022/12/12 11:52:32;;;;;;;42.83;18.33;;;;;;;;;;5136460;27;20071;-81
2022/12/12 11:54:59;;;;;;;36.55;16.00;;;;;;;;;;5135363;27;20429;-81
2022/12/12 11:57:28;;;;;;;33.67;15.00;;;;;;;;;;5132500;27;20103;-81
2022/12/12 12:00:00;;;;;;;39.17;16.58;;;;;;;;;;5118304;27;20151;-81
2022/12/12 12:02:42;;;;;;;35.22;16.27;;;;;;;;;;5131278;27;20026;-81
2022/12/12 12:05:16;;;;;;;37.65;17.23;;;;;;;;;;5136594;27;20076;-81
2022/12/12 12:07:48;;;;;;;38.63;16.45;;;;;;;;;;5118080;27;20115;-81
2022/12/12 12:10:21;;;;;;;39.85;15.73;;;;;;;;;;5107114;28;20027;-81
2022/12/12 12:12:53;;;;;;;33.10;15.13;;;;;;;;;;5098753;27;20354;-81
2022/12/12 12:15:19;;;;;;;;;;;;;;;;;;5136751;27;20068;-81
2022/12/12 12:17:56;;;;;;;36.47;15.73;;;;;;;;;;5117676;27;19904;-81
2022/12/12 12:20:22;;;;;;;37.55;15.70;;;;;;;;;;5135961;27;20023;-81
2022/12/12 12:23:01;;;;;;;35.88;15.57;;;;;;;;;;5134375;27;20225;-81
2022/12/12 12:25:36;;;;;;;36.47;14.18;;;;;;;;;;5134785;27;20044;-81
2022/12/12 12:28:05;;;;;;;35.50;15.60;;;;;;;;;;5136079;27;20012;-81
2022/12/12 12:30:31;;;;;;;35.78;15.98;;;;;;;;;;5130721;27;20478;-81
2022/12/12 12:33:09;;;;;;;36.97;15.90;;;;;;;;;;5115524;28;20015;-81
2022/12/12 12:35:44;;;;;;;30.98;14.30;;;;;;;;;;5131833;27;20068;-81
2022/12/12 12:38:36;;;;;;;33.15;15.02;;;;;;;;;;5135252;27;20027;-81
2022/12/12 12:41:14;;;;;;;34.63;14.57;;;;;;;;;;5120063;27;20513;-81
2022/12/12 12:43:46;;;;;;;34.40;15.38;;;;;;;;;;5128543;27;20031;-82
2022/12/12 12:46:18;;;;;;;30.55;13.82;;;;;;;;;;5116711;27;20026;-82
2022/12/12 12:48:50;;;;;;;31.95;14.88;;;;;;;;;;5135529;27;20015;-82
2022/12/12 12:51:36;;;;;;;28.67;13.02;;;;;;;;;;5107500;28;20028;-82
2022/12/12 12:54:11;;;;;;;34.67;13.95;;;;;;;;;;5114609;28;20108;-82
2022/12/12 12:56:40;;;;;;;34.83;14.35;;;;;;;;;;5114595;28;20110;-81
2022/12/12 12:59:13;;;;;;;32.97;15.30;;;;;;;;;;5114365;28;20096;-82
2022/12/12 13:01:41;;;;;;;35.55;14.25;;;;;;;;;;5114943;28;20094;-81
2022/12/12 13:04:11;;;;;;;30.08;13.48;;;;;;;;;;5114690;28;20027;-82
2022/12/12 13:06:50;;;;;;;31.13;14.18;;;;;;;;;;5096552;28;20412;-81
2022/12/12 13:09:35;;;;;;;31.13;14.57;;;;;;;;;;5114681;28;20113;-81
2022/12/12 13:12:24;;;;;;;29.95;13.43;;;;;;;;;;5126623;27;20068;-81
2022/12/12 13:14:51;;;;;;;34.33;14.40;;;;;;;;;;5122733;27;20441;-81
2022/12/12 13:17:20;;;;;;;28.65;13.45;;;;;;;;;;5120882;27;20078;-81
2022/12/12 13:19:52;;;;;;;32.45;14.38;;;;;;;;;;5114258;28;20426;-81
2022/12/12 13:22:36;;;;;;;32.10;14.02;;;;;;;;;;5114030;28;20112;-82
2022/12/12 13:25:08;;;;;;;29.23;13.43;;;;;;;;;;5115812;27;20062;-81
2022/12/12 13:27:39;;;;;;;32.65;14.35;;;;;;;;;;5114272;28;20374;-82
2022/12/12 13:30:14;;;;;;;27.70;13.17;;;;;;;;;;5114344;28;20031;-81
2022/12/12 13:32:49;;;;;;;29.27;13.55;;;;;;;;;;5096222;28;20035;-82
2022/12/12 13:35:17;;;;;;;29.85;12.02;;;;;;;;;;5114211;28;20035;-82
2022/12/12 13:37:45;;;;;;;30.00;13.55;;;;;;;;;;5130910;27;20031;-82
2022/12/12 13:40:21;;;;;;;27.73;12.68;;;;;;;;;;5134798;27;20015;-81
2022/12/12 13:42:51;;;;;;;26.95;12.88;;;;;;;;;;5134313;27;20358;-81
2022/12/12 13:45:33;;;;;;;29.17;13.68;;;;;;;;;;5134617;27;20386;-81
2022/12/12 13:48:06;;;;;;;27.42;12.65;;;;;;;;;;5116137;27;20050;-81
2022/12/12 13:50:32;;;;;;;27.40;11.98;;;;;;;;;;5112879;27;20115;-81
2022/12/12 13:53:18;;;;;;;28.95;13.65;;;;;;;;;;5118393;27;20035;-81
2022/12/12 13:55:44;;;;;;;29.15;13.05;;;;;;;;;;5112642;28;20023;-81
2022/12/12 13:58:17;;;;;;;29.65;12.00;;;;;;;;;;5116707;27;20106;-82
2022/12/12 14:00:43;;;;;;;33.78;14.40;;;;;;;;;;5123062;27;20478;-82
2022/12/12 14:03:09;;;;;;;32.67;13.57;;;;;;;;;;5134138;27;20498;-81
2022/12/12 14:05:49;;;;;;;34.95;13.63;;;;;;;;;;5132862;27;20023;-81
2022/12/12 14:08:15;;;;;;;29.27;13.68;;;;;;;;;;5133931;27;20155;-81
2022/12/12 14:10:47;;;;;;;39.88;13.52;;;;;;;;;;5134045;27;20457;-81
2022/12/12 14:13:33;;;;;;;27.95;12.73;;;;;;;;;;5132851;27;20035;-82
2022/12/12 14:16:02;;;;;;;29.15;12.25;;;;;;;;;;5115234;27;20024;-82
2022/12/12 14:18:34;;;;;;;27.70;11.93;;;;;;;;;;5132604;27;20027;-82
2022/12/12 14:21:01;;;;;;;28.33;12.13;;;;;;;;;;5114877;27;20068;-82
2022/12/12 14:23:27;;;;;;;34.25;14.43;;;;;;;;;;5114373;27;20061;-81
2022/12/12 14:25:53;;;;;;;27.13;13.10;;;;;;;;;;5113068;28;20068;-82
2022/12/12 14:28:22;;;;;;;29.35;14.07;;;;;;;;;;5113087;28;20020;-82
2022/12/12 14:30:57;;;;;;;34.72;13.73;;;;;;;;;;5113230;28;20092;-81
2022/12/12 14:33:42;;;;;;;31.55;13.82;;;;;;;;;;5113365;27;20030;-82
2022/12/12 14:36:08;;;;;;;31.38;13.73;;;;;;;;;;5119899;27;20015;-81
2022/12/12 14:38:40;;;;;;;39.75;14.82;;;;;;;;;;5133371;27;20076;-82
2022/12/12 14:41:10;;;;;;;39.60;13.95;;;;;;;;;;5133625;27;20027;-82
2022/12/12 14:43:40;;;;;;;34.10;14.10;;;;;;;;;;5133528;27;20019;-83
2022/12/12 14:46:06;;;;;;;40.80;15.50;;;;;;;;;;5114933;27;20031;-82